Time;durP1;ratioP1;P1;durP2;ratioP2;P2;SDS_P1;SDS_P2;PMS_P1;PMS_P2;Temp;Humidity;BMP_temperature;BMP_pressure;BME280_temperature;BME280_humidity;BME280_pressure;Samples;Min_cycle;Max_cycle;Signal;HPM_P1;HPM_P2
2022/09/05 00:00:18;;;;;;;5.95;3.83;;;6.50;99.90;6.20;99098.00;;;;4986504;28;86844;-63
2022/09/05 00:03:08;;;;;;;8.38;5.25;;;6.50;99.90;6.10;99083.00;;;;4987608;28;88680;-63
2022/09/05 00:05:51;;;;;;;8.50;6.13;;;6.40;99.90;6.00;99085.00;;;;4991457;28;87301;-63
2022/09/05 00:08:22;;;;;;;8.18;5.15;;;;;6.00;99090.00;;;;4997916;28;86810;-63
2022/09/05 00:11:04;;;;;;;6.00;4.82;;;6.30;99.90;6.00;99091.00;;;;4971824;28;87223;-62
2022/09/05 00:13:39;;;;;;;5.00;4.15;;;6.20;99.90;5.90;99076.00;;;;4981901;28;87293;-62
2022/09/05 00:16:39;;;;;;;7.15;4.70;;;6.30;99.90;6.00;99082.00;;;;4982359;28;89700;-62
2022/09/05 00:19:33;;;;;;;6.35;4.80;;;6.30;99.90;6.00;99088.00;;;;4991237;28;86951;-61
2022/09/05 00:22:52;;;;;;;5.57;4.40;;;6.30;99.90;6.00;99082.00;;;;4993034;28;86959;-61
2022/09/05 00:26:05;;;;;;;4.75;3.97;;;6.30;99.90;6.00;99085.00;;;;4979364;28;89644;-62
2022/09/05 00:28:50;;;;;;;4.85;3.90;;;6.30;99.90;5.90;99078.00;;;;4990761;28;87976;-62
2022/09/05 00:31:36;;;;;;;4.78;3.60;;;;;5.90;99080.00;;;;4990226;28;87098;-62
2022/09/05 00:34:05;;;;;;;5.05;3.55;;;;;5.80;99069.00;;;;4990800;28;87181;-62
2022/09/05 00:36:53;;;;;;;5.75;4.40;;;6.20;99.90;5.90;99071.00;;;;4997272;28;87528;-62
2022/09/05 00:39:23;;;;;;;5.10;4.07;;;;;5.90;99068.00;;;;4994981;28;89401;-61
2022/09/05 00:41:53;;;;;;;5.20;4.32;;;6.20;99.90;5.90;99069.00;;;;4993950;28;87540;-62
2022/09/05 00:44:26;;;;;;;4.90;4.13;;;6.20;99.90;5.80;99062.00;;;;4989334;28;86126;-62
2022/09/05 00:47:32;;;;;;;5.00;4.50;;;6.20;99.90;5.80;99059.00;;;;4994731;28;88964;-62
2022/09/05 00:50:33;;;;;;;5.03;4.45;;;6.10;99.90;5.80;99060.00;;;;4995421;28;87588;-62
2022/09/05 00:53:17;;;;;;;4.70;4.30;;;6.10;99.90;5.80;99056.00;;;;4989949;28;87891;-62
2022/09/05 00:55:47;;;;;;;5.25;4.75;;;;;5.90;99063.00;;;;5008134;28;87116;-62
2022/09/05 00:58:53;;;;;;;5.82;4.80;;;6.10;99.90;5.70;99070.00;;;;4998239;28;87777;-62
2022/09/05 01:01:28;;;;;;;5.28;4.40;;;6.00;99.90;5.70;99062.00;;;;4993948;28;88359;-62
2022/09/05 01:04:39;;;;;;;5.97;5.38;;;6.00;99.90;5.80;99053.00;;;;4990041;28;87171;-62
2022/09/05 01:07:45;;;;;;;6.65;5.00;;;6.00;99.90;5.70;99054.00;;;;4969525;28;87565;-62
2022/09/05 01:10:22;;;;;;;6.20;5.20;;;6.10;99.90;5.80;99055.00;;;;4999154;28;88207;-62
2022/09/05 01:13:34;;;;;;;5.50;4.97;;;6.10;99.90;5.80;99056.00;;;;4982455;28;88933;-62
2022/09/05 01:16:23;;;;;;;6.80;5.53;;;6.10;99.90;5.80;99044.00;;;;4998874;28;86914;-62
2022/09/05 01:19:11;;;;;;;6.13;5.63;;;6.10;99.90;5.80;99048.00;;;;4985527;28;86898;-62
2022/09/05 01:22:05;;;;;;;7.28;5.47;;;6.10;99.90;5.80;99043.00;;;;4993546;28;88423;-62
2022/09/05 01:25:25;;;;;;;6.07;5.05;;;6.10;99.90;5.70;99036.00;;;;4987760;28;88172;-62
2022/09/05 01:28:00;;;;;;;11.45;6.25;;;6.00;99.90;5.70;99040.00;;;;4980913;28;87134;-62
2022/09/05 01:30:59;;;;;;;6.40;5.80;;;6.00;99.90;5.70;99040.00;;;;4989916;28;87224;-62
2022/09/05 01:33:53;;;;;;;6.70;6.10;;;6.00;99.90;5.70;99042.00;;;;4990804;28;87523;-62
2022/09/05 01:37:07;;;;;;;6.38;5.78;;;6.10;99.90;5.70;99028.00;;;;4996044;28;87243;-62
2022/09/05 01:40:14;;;;;;;7.22;6.53;;;6.00;99.90;5.80;99039.00;;;;4988671;28;87786;-62
2022/09/05 01:43:03;;;;;;;6.70;6.03;;;6.10;99.90;5.70;99030.00;;;;4962331;28;86453;-62
2022/09/05 01:46:36;;;;;;;7.13;6.32;;;6.00;99.90;5.70;99033.00;;;;4989407;28;89834;-62
2022/09/05 01:49:41;;;;;;;6.75;5.68;;;6.00;99.90;5.60;99030.00;;;;4986115;28;88271;-62
2022/09/05 01:52:38;;;;;;;7.25;6.65;;;6.00;99.90;5.70;99026.00;;;;4989671;28;88045;-62
2022/09/05 01:55:44;;;;;;;7.35;6.57;;;5.90;99.90;5.60;99030.00;;;;4990032;28;87508;-62
2022/09/05 01:58:13;;;;;;;8.48;6.93;;;5.90;99.90;5.60;99020.00;;;;4990737;28;88846;-62
2022/09/05 02:00:57;;;;;;;7.65;6.70;;;5.90;99.90;5.60;99030.00;;;;4992306;28;89635;-62
2022/09/05 02:03:47;;;;;;;6.45;5.78;;;5.90;99.90;5.50;99028.00;;;;4995509;28;87774;-61
2022/09/05 02:06:22;;;;;;;8.18;6.35;;;5.80;99.90;5.40;99030.00;;;;4987498;28;87092;-63
2022/09/05 02:09:09;;;;;;;6.82;6.13;;;5.80;99.90;5.40;99025.00;;;;4994987;28;87638;-63
2022/09/05 02:11:50;;;;;;;6.30;5.65;;;5.70;99.90;5.30;99022.00;;;;5004927;28;87359;-63
2022/09/05 02:14:37;;;;;;;6.55;5.82;;;5.70;99.90;5.30;99028.00;;;;4991739;28;86850;-62
2022/09/05 02:17:42;;;;;;;6.80;5.97;;;5.60;99.90;5.10;99038.00;;;;4996260;28;87067;-63
2022/09/05 02:20:31;;;;;;;6.57;5.78;;;5.50;99.90;5.10;99030.00;;;;4902898;28;88543;-61
2022/09/05 02:23:08;;;;;;;7.32;6.60;;;;;5.10;99038.00;;;;4886330;28;89115;-62
2022/09/05 02:25:52;;;;;;;8.02;7.32;;;5.60;99.90;5.30;99042.00;;;;4982173;28;87178;-62
2022/09/05 02:28:49;;;;;;;9.88;8.98;;;5.60;99.90;5.40;99049.00;;;;4993189;28;86999;-62
2022/09/05 02:31:44;;;;;;;9.82;9.10;;;5.70;99.90;5.40;99055.00;;;;4993195;28;87454;-61
2022/09/05 02:34:12;;;;;;;9.45;8.73;;;;;5.40;99041.00;;;;4991531;28;87223;-61
2022/09/05 02:37:25;;;;;;;9.90;9.10;;;5.70;99.90;5.40;99056.00;;;;4992612;28;87321;-62
2022/09/05 02:40:00;;;;;;;14.02;12.80;;;5.70;99.90;5.40;99050.00;;;;4990965;28;86443;-61
2022/09/05 02:42:43;;;;;;;9.73;8.93;;;5.60;99.90;5.30;99049.00;;;;4989341;28;87546;-61
2022/09/05 02:45:21;;;;;;;9.88;9.02;;;;;5.30;99040.00;;;;4990989;28;87361;-62
2022/09/05 02:48:39;;;;;;;9.82;9.02;;;5.60;99.90;5.30;99047.00;;;;4989807;28;88834;-62
2022/09/05 02:51:44;;;;;;;9.85;9.00;;;5.60;99.90;5.30;99048.00;;;;4931855;28;87117;-62
2022/09/05 02:54:27;;;;;;;10.52;9.73;;;5.60;99.90;5.30;99047.00;;;;4996051;28;87472;-61
2022/09/05 02:57:17;;;;;;;10.45;9.65;;;5.70;99.90;5.30;99052.00;;;;4990176;28;87868;-62
2022/09/05 03:00:16;;;;;;;9.80;8.90;;;5.70;99.90;5.40;99037.00;;;;4991558;28;86943;-62
2022/09/05 03:03:46;;;;;;;9.85;8.90;;;5.70;99.90;5.40;99035.00;;;;4994098;28;88004;-61
2022/09/05 03:06:34;;;;;;;9.48;8.68;;;5.60;99.90;5.40;99041.00;;;;4984142;28;89287;-61
2022/09/05 03:09:41;;;;;;;10.10;9.30;;;5.70;99.90;5.50;99044.00;;;;4990481;28;88094;-62
2022/09/05 03:12:07;;;;;;;11.60;10.75;;;;;5.50;99034.00;;;;4994898;28;87026;-62
2022/09/05 03:14:37;;;;;;;10.18;9.38;;;;;5.50;99041.00;;;;5006043;28;87083;-63
2022/09/05 04:06:40;;;;;;;7.13;4.10;;;6.70;99.90;6.60;99039.00;;;;4987706;28;88740;-63
2022/09/05 04:09:18;;;;;;;5.22;3.95;;;6.80;99.90;6.70;99056.00;;;;4992956;28;87139;-62
2022/09/05 04:11:51;;;;;;;5.63;4.20;;;6.80;99.90;6.70;99037.00;;;;4991359;28;87743;-62
2022/09/05 04:15:05;;;;;;;8.93;4.20;;;6.90;99.90;6.70;99048.00;;;;4988850;28;87243;-62
2022/09/05 04:17:45;;;;;;;7.03;4.07;;;7.00;99.90;6.80;99037.00;;;;4989946;28;87145;-61
2022/09/05 04:20:17;;;;;;;6.63;3.97;;;7.00;99.90;6.90;99036.00;;;;4990864;28;87082;-63
2022/09/05 04:23:41;;;;;;;6.50;3.63;;;7.10;99.90;6.90;99030.00;;;;4991520;28;87617;-62
2022/09/05 04:26:45;;;;;;;5.65;3.75;;;7.10;99.90;6.90;99033.00;;;;4957222;28;87489;-63
2022/09/05 04:29:29;;;;;;;6.85;4.15;;;7.10;99.90;7.00;99036.00;;;;4993620;28;86939;-63
2022/09/05 04:32:16;;;;;;;7.68;3.40;;;7.10;99.90;7.00;99031.00;;;;4991678;28;87345;-63
2022/09/05 04:35:07;;;;;;;4.72;3.90;;;7.20;99.90;7.10;99032.00;;;;4989735;28;88734;-62
2022/09/05 04:37:50;;;;;;;5.55;4.05;;;7.20;99.90;7.10;99038.00;;;;4983791;28;88579;-63
2022/09/05 04:40:50;;;;;;;4.68;3.60;;;7.20;99.90;7.10;99043.00;;;;4984965;28;87015;-63
2022/09/05 04:43:44;;;;;;;6.57;4.40;;;7.20;99.90;7.10;99041.00;;;;4996001;28;86967;-62
2022/09/05 04:46:23;;;;;;;9.55;4.72;;;7.30;99.90;7.20;99044.00;;;;4999240;28;88407;-62
2022/09/05 04:49:05;;;;;;;7.13;4.53;;;7.40;99.90;7.30;99040.00;;;;4984840;28;88374;-63
2022/09/05 04:52:19;;;;;;;7.60;4.25;;;7.50;99.90;7.40;99044.00;;;;4992151;28;87687;-61
2022/09/05 04:54:52;;;;;;;5.68;4.18;;;7.60;99.90;7.50;99042.00;;;;5001069;28;86262;-62
2022/09/05 04:57:50;;;;;;;6.60;4.60;;;7.60;99.90;7.50;99043.00;;;;4992762;28;89147;-60
2022/09/05 05:00:25;;;;;;;6.40;4.10;;;7.60;99.90;7.50;99038.00;;;;4962892;28;91018;-62
2022/09/05 05:03:16;;;;;;;6.03;4.88;;;7.60;99.90;7.40;99044.00;;;;4988518;28;87955;-62
2022/09/05 05:05:48;;;;;;;9.23;4.65;;;7.60;99.90;7.50;99038.00;;;;4989530;28;86948;-62
2022/09/05 05:08:54;;;;;;;7.10;4.10;;;7.70;99.90;7.60;99038.00;;;;4999526;28;88373;-62
2022/09/05 05:11:38;;;;;;;6.68;4.13;;;7.80;99.90;7.80;99033.00;;;;4999219;28;87017;-61
2022/09/05 05:14:19;;;;;;;6.10;4.22;;;7.90;99.90;7.90;99037.00;;;;4983130;28;86980;-62
2022/09/05 05:17:33;;;;;;;6.73;4.83;;;8.00;99.90;7.90;99029.00;;;;4990591;28;87281;-63
2022/09/05 05:20:20;;;;;;;7.78;5.38;;;8.10;99.90;8.00;99021.00;;;;4983915;28;87770;-63
2022/09/05 05:23:01;;;;;;;9.52;4.50;;;8.20;99.90;8.10;99037.00;;;;4993291;28;88344;-63
2022/09/05 05:25:41;;;;;;;9.07;5.30;;;8.30;99.90;8.30;99034.00;;;;4988429;28;86916;-63
2022/09/05 05:28:48;;;;;;;12.40;4.72;;;8.50;99.90;8.50;99047.00;;;;4990327;28;86997;-63
2022/09/05 05:31:30;;;;;;;6.78;5.07;;;8.60;99.90;8.60;99039.00;;;;4973961;28;88720;-63
2022/09/05 05:34:04;;;;;;;7.35;4.90;;;8.70;99.90;8.70;99047.00;;;;4988548;28;88296;-63
2022/09/05 05:36:38;;;;;;;5.93;4.75;;;8.70;99.90;8.80;99033.00;;;;4991738;28;86947;-64
2022/09/05 05:39:14;;;;;;;10.38;4.50;;;8.90;99.90;8.90;99040.00;;;;4996734;28;87781;-63
2022/09/05 05:41:55;;;;;;;4.65;4.13;;;9.10;99.90;9.10;99050.00;;;;4992208;28;90151;-64
2022/09/05 05:44:33;;;;;;;6.65;4.78;;;9.30;99.90;9.30;99050.00;;;;4991191;28;86927;-63
2022/09/05 05:47:19;;;;;;;6.95;4.75;;;9.50;99.90;9.60;99042.00;;;;4992659;28;88594;-63
2022/09/05 05:50:41;;;;;;;8.82;4.72;;;9.60;99.90;9.70;99036.00;;;;4992386;28;86726;-63
2022/09/05 05:53:57;;;;;;;7.35;3.78;;;9.70;99.90;9.80;99043.00;;;;4989182;28;88931;-63
2022/09/05 05:56:57;;;;;;;7.10;4.40;;;9.80;99.90;9.90;99037.00;;;;4995106;28;88914;-63
2022/09/05 06:00:03;;;;;;;9.15;3.53;;;9.80;99.90;9.90;99051.00;;;;4990245;28;88077;-63
2022/09/05 06:02:38;;;;;;;6.15;4.15;;;;;9.80;99049.00;;;;4992890;28;87460;-63
2022/09/05 06:05:24;;;;;;;5.25;3.83;;;;;9.80;99054.00;;;;4991293;28;88891;-63
2022/09/05 06:08:18;;;;;;;6.07;4.05;;;9.70;99.90;9.70;99053.00;;;;4993676;28;87456;-63
2022/09/05 06:11:38;;;;;;;6.15;3.75;;;9.70;99.90;9.70;99054.00;;;;4989579;28;87261;-63
2022/09/05 06:14:17;;;;;;;5.05;3.58;;;;;9.70;99053.00;;;;4993922;28;87629;-64
2022/09/05 06:17:17;;;;;;;5.05;3.70;;;9.60;99.90;9.40;99053.00;;;;5001809;28;87098;-63
2022/09/05 06:19:43;;;;;;;5.05;3.35;;;;;9.40;99048.00;;;;4992888;28;87438;-63
2022/09/05 06:22:18;;;;;;;7.32;3.55;;;;;9.50;99056.00;;;;4994209;28;87227;-63
2022/09/05 06:25:37;;;;;;;4.88;3.13;;;9.50;99.90;9.50;99068.00;;;;4976592;28;87191;-62
2022/09/05 06:28:34;;;;;;;4.95;3.50;;;9.50;99.90;9.50;99056.00;;;;4994016;28;88645;-63
2022/09/05 06:31:57;;;;;;;6.13;3.35;;;9.50;99.90;9.50;99055.00;;;;4990886;28;88497;-63
2022/09/05 06:34:23;;;;;;;;;;;9.50;99.90;9.70;99055.00;;;;5011609;28;87467;-63
2022/09/05 06:37:02;;;;;;;6.65;3.55;;;9.80;99.90;9.80;99059.00;;;;4992963;28;86947;-63
2022/09/05 06:39:55;;;;;;;4.68;3.63;;;9.90;99.90;9.80;99066.00;;;;4993563;28;87746;-63
2022/09/05 06:42:56;;;;;;;5.63;3.47;;;9.90;99.90;9.90;99057.00;;;;4991831;28;87718;-63
2022/09/05 06:45:48;;;;;;;7.05;3.88;;;9.90;99.90;10.00;99060.00;;;;4996160;28;87051;-63
2022/09/05 06:48:26;;;;;;;4.82;3.20;;;10.00;99.90;10.10;99062.00;;;;4987807;28;87587;-63
2022/09/05 06:51:22;;;;;;;7.68;3.60;;;10.10;99.90;10.10;99068.00;;;;4989375;28;87506;-63
2022/09/05 06:54:03;;;;;;;4.57;3.47;;;10.00;99.90;10.00;99063.00;;;;4989070;28;88382;-62
2022/09/05 06:57:03;;;;;;;5.40;3.47;;;10.10;99.90;10.10;99057.00;;;;4987554;28;88261;-63
2022/09/05 07:00:05;;;;;;;7.90;3.90;;;10.00;99.90;10.00;99068.00;;;;4992014;28;87468;-63
2022/09/05 07:03:10;;;;;;;5.88;3.28;;;10.10;99.90;10.20;99065.00;;;;4932149;28;88605;-63
2022/09/05 07:06:06;;;;;;;9.38;3.60;;;10.50;99.90;10.60;99071.00;;;;4991415;28;87016;-63
2022/09/05 07:09:04;;;;;;;9.55;3.40;;;10.70;99.90;10.90;99061.00;;;;4992648;28;87999;-63
2022/09/05 07:11:57;;;;;;;7.95;2.80;;;11.00;99.90;11.10;99055.00;;;;4991495;28;87101;-63
2022/09/05 07:14:49;;;;;;;4.93;2.75;;;10.90;99.90;10.90;99071.00;;;;4995657;28;88757;-65
2022/09/05 07:17:17;;;;;;;7.60;3.15;;;;;10.60;99070.00;;;;4991229;28;87510;-63
2022/09/05 07:19:58;;;;;;;3.70;2.85;;;10.70;99.90;10.80;99057.00;;;;4994318;28;87646;-64
2022/09/05 07:22:45;;;;;;;4.80;3.22;;;10.60;99.90;10.50;99069.00;;;;4991989;28;87379;-64
2022/09/05 07:25:19;;;;;;;5.00;2.90;;;10.30;99.90;10.10;99076.00;;;;4992103;28;88684;-64
2022/09/05 07:27:55;;;;;;;4.38;2.75;;;10.40;99.90;10.30;99067.00;;;;4989099;28;88229;-63
2022/09/05 07:30:21;;;;;;;3.25;2.53;;;;;10.60;99067.00;;;;4992730;28;87498;-63
2022/09/05 07:32:53;;;;;;;6.95;3.78;;;10.50;99.90;10.40;99072.00;;;;4994423;28;87579;-63
2022/09/05 07:35:29;;;;;;;6.85;3.45;;;10.30;99.90;10.30;99078.00;;;;4993994;28;87784;-62
2022/09/05 07:38:05;;;;;;;4.50;3.05;;;10.30;99.90;10.30;99077.00;;;;4985586;28;87254;-62
2022/09/05 07:40:39;;;;;;;3.25;2.70;;;10.40;99.90;10.40;99070.00;;;;4993484;28;87321;-62
2022/09/05 07:43:15;;;;;;;4.85;3.00;;;10.60;99.90;10.70;99066.00;;;;5000633;28;86166;-63
2022/09/05 07:46:01;;;;;;;4.90;2.63;;;10.90;99.90;10.90;99061.00;;;;4985471;28;88980;-63
2022/09/05 07:48:34;;;;;;;4.88;3.08;;;11.10;99.90;11.10;99063.00;;;;4984441;28;87022;-63
2022/09/05 07:51:07;;;;;;;5.78;2.85;;;11.40;99.90;11.50;99061.00;;;;4968302;28;87909;-64
2022/09/05 07:53:36;;;;;;;5.70;2.95;;;11.60;99.90;11.80;99065.00;;;;5002358;28;87038;-63
2022/09/05 07:56:07;;;;;;;4.45;2.80;;;11.70;99.90;11.90;99056.00;;;;4994005;28;88671;-63
2022/09/05 07:58:51;;;;;;;3.95;2.42;;;11.90;99.90;11.90;99064.00;;;;4993166;28;87947;-62
2022/09/05 08:01:21;;;;;;;4.30;3.10;;;11.70;99.90;11.70;99058.00;;;;4993461;28;86937;-63
2022/09/05 08:03:54;;;;;;;6.70;2.58;;;11.50;99.90;11.70;99053.00;;;;4991235;28;87023;-63
2022/09/05 08:06:25;;;;;;;7.18;2.20;;;11.70;99.90;11.70;99054.00;;;;4991602;28;88756;-63
2022/09/05 08:09:27;;;;;;;8.25;4.50;;;11.30;99.90;11.40;99058.00;;;;4990717;28;87729;-63
2022/09/05 08:12:00;;;;;;;4.50;1.90;;;11.40;99.90;11.50;99057.00;;;;5007660;28;87030;-62
2022/09/05 08:14:36;;;;;;;6.18;1.90;;;11.20;99.90;11.20;99060.00;;;;4990723;28;87170;-62
2022/09/05 08:17:10;;;;;;;3.08;2.30;;;10.90;99.90;10.90;99058.00;;;;4997026;28;88925;-62
2022/09/05 08:19:53;;;;;;;5.15;2.50;;;;;10.60;99066.00;;;;4985246;28;89843;-63
2022/09/05 08:22:24;;;;;;;4.85;2.30;;;10.60;99.90;10.60;99052.00;;;;4985352;28;86980;-62
2022/09/05 08:25:41;;;;;;;2.42;2.20;;;10.80;99.90;10.90;99047.00;;;;4996032;28;86950;-63
2022/09/05 08:28:39;;;;;;;2.95;2.00;;;10.90;99.90;10.90;99055.00;;;;4938110;28;88709;-63
2022/09/05 08:31:20;;;;;;;3.33;2.05;;;10.80;99.90;10.90;99048.00;;;;4938976;28;88427;-63
2022/09/05 08:33:52;;;;;;;4.78;2.10;;;10.90;99.90;10.70;99066.00;;;;4983051;28;87158;-63
2022/09/05 08:36:28;;;;;;;2.13;1.77;;;10.70;99.90;10.70;99040.00;;;;4997624;28;86259;-63
2022/09/05 08:38:59;;;;;;;4.13;1.58;;;10.60;99.90;10.60;99053.00;;;;4995842;28;87868;-63
2022/09/05 08:41:52;;;;;;;3.40;2.03;;;10.80;99.90;10.80;99035.00;;;;4998118;28;86956;-62
2022/09/05 08:44:37;;;;;;;4.30;1.67;;;;;11.00;99035.00;;;;4981970;28;88297;-63
2022/09/05 08:47:41;;;;;;;2.03;1.70;;;11.10;99.90;11.30;99027.00;;;;4986216;28;87325;-63
2022/09/05 08:50:31;;;;;;;4.25;1.83;;;11.50;99.90;11.70;99050.00;;;;4987996;28;88775;-63
2022/09/05 08:53:31;;;;;;;3.60;1.58;;;11.70;99.90;11.90;99052.00;;;;4999861;28;87299;-63
2022/09/05 08:56:16;;;;;;;5.40;1.70;;;11.90;99.90;12.10;99043.00;;;;4988336;28;86934;-64
2022/09/05 08:59:12;;;;;;;1.33;1.23;;;12.00;99.90;12.10;99048.00;;;;4989234;28;86919;-63
2022/09/05 09:02:03;;;;;;;3.67;1.00;;;11.90;99.90;12.00;99037.00;;;;4989913;28;87565;-63
2022/09/05 09:04:54;;;;;;;3.87;1.47;;;11.90;99.90;12.10;99034.00;;;;4992384;28;87174;-63
2022/09/05 09:07:53;;;;;;;1.77;1.20;;;11.90;99.90;12.00;99039.00;;;;4980848;28;87495;-63
2022/09/05 09:10:56;;;;;;;2.22;1.50;;;12.00;99.90;12.10;99042.00;;;;4984386;28;86992;-63
2022/09/05 09:13:51;;;;;;;4.68;1.17;;;11.80;99.90;11.80;99049.00;;;;4993203;28;89153;-63
2022/09/05 09:16:59;;;;;;;3.45;1.50;;;11.60;99.90;11.70;99036.00;;;;4993326;28;88439;-63
2022/09/05 09:20:18;;;;;;;2.80;1.10;;;11.60;99.90;11.70;99035.00;;;;4994002;28;87148;-63
2022/09/05 09:23:08;;;;;;;4.25;1.40;;;11.60;99.90;11.70;99034.00;;;;4978998;28;88003;-63
2022/09/05 09:26:01;;;;;;;2.30;1.05;;;;;11.40;99037.00;;;;4992207;28;87941;-63
2022/09/05 09:29:02;;;;;;;2.13;1.30;;;11.30;99.90;11.30;99038.00;;;;4992223;28;88230;-63
2022/09/05 09:32:08;;;;;;;3.22;1.70;;;11.40;99.90;11.50;99028.00;;;;4990304;28;87677;-63
2022/09/05 09:35:18;;;;;;;4.47;1.30;;;11.60;99.90;11.50;99026.00;;;;4994694;28;86613;-63
2022/09/05 09:38:03;;;;;;;3.90;1.77;;;;;11.50;99030.00;;;;4991031;28;87044;-63
2022/09/05 09:40:56;;;;;;;3.25;1.70;;;11.50;99.90;11.50;99028.00;;;;4994314;28;87390;-63
2022/09/05 09:43:26;;;;;;;1.63;1.10;;;11.60;99.90;11.70;99027.00;;;;4993503;28;87995;-63
2022/09/05 09:46:30;;;;;;;5.05;1.60;;;11.70;99.90;11.80;99029.00;;;;4991977;28;88001;-63
2022/09/05 09:49:24;;;;;;;3.30;1.13;;;11.80;99.90;11.90;99026.00;;;;5001641;28;87040;-63
2022/09/05 09:52:11;;;;;;;3.47;1.42;;;11.70;99.90;11.60;99025.00;;;;4995384;28;87957;-64
2022/09/05 09:55:11;;;;;;;5.22;1.40;;;11.70;99.90;11.90;99016.00;;;;5004836;28;88700;-63
2022/09/05 09:58:16;;;;;;;3.67;1.55;;;12.00;99.90;12.20;99019.00;;;;4990607;28;87100;-62
2022/09/05 10:01:14;;;;;;;2.83;1.13;;;12.30;99.90;12.40;99020.00;;;;4992654;28;87908;-63
2022/09/05 10:04:06;;;;;;;2.83;1.60;;;12.30;99.90;12.40;99022.00;;;;4992125;28;87295;-63
2022/09/05 10:07:08;;;;;;;1.10;0.90;;;12.40;99.90;12.60;99018.00;;;;4998715;28;87125;-64
2022/09/05 10:09:53;;;;;;;3.70;1.27;;;;;12.40;99028.00;;;;4993130;28;86973;-64
2022/09/05 10:12:22;;;;;;;2.58;1.30;;;11.90;99.90;11.90;99027.00;;;;4986308;28;88661;-64
2022/09/05 10:15:29;;;;;;;3.63;1.25;;;11.80;99.90;11.80;99021.00;;;;4996098;28;88309;-63
2022/09/05 10:18:37;;;;;;;2.33;1.30;;;11.50;99.90;11.60;99025.00;;;;4990219;28;86881;-64
2022/09/05 10:21:38;;;;;;;3.38;1.30;;;11.50;99.90;11.30;99029.00;;;;4972082;28;87084;-64
2022/09/05 10:24:25;;;;;;;3.53;1.23;;;11.10;99.90;11.00;99035.00;;;;4996818;28;87822;-64
2022/09/05 10:27:09;;;;;;;4.32;1.40;;;11.10;99.90;11.10;99016.00;;;;4992928;28;87506;-64
2022/09/05 10:29:41;;;;;;;2.60;1.67;;;11.10;99.90;11.20;99015.00;;;;4993397;28;87026;-63
2022/09/05 10:32:23;;;;;;;2.25;1.25;;;11.20;99.90;11.20;99012.00;;;;4991513;28;86248;-63
2022/09/05 10:35:01;;;;;;;2.47;1.15;;;11.40;99.90;11.50;99014.00;;;;4990297;28;86933;-64
2022/09/05 10:37:47;;;;;;;3.17;1.30;;;11.30;99.90;11.40;99009.00;;;;4985352;28;87139;-64
2022/09/05 10:40:24;;;;;;;4.05;1.60;;;11.60;99.90;11.70;99012.00;;;;4990032;28;88325;-63
2022/09/05 10:43:07;;;;;;;2.35;1.10;;;11.50;99.90;11.50;99009.00;;;;4989901;28;87455;-63
2022/09/05 10:45:56;;;;;;;3.80;1.00;;;11.50;99.90;11.50;99004.00;;;;4988639;28;87610;-63
2022/09/05 10:48:25;;;;;;;2.03;1.50;;;;;11.20;99016.00;;;;4993525;28;87206;-63
2022/09/05 10:51:02;;;;;;;2.72;1.35;;;11.10;99.90;11.10;99010.00;;;;4986826;28;86927;-62
2022/09/05 10:53:52;;;;;;;1.90;1.48;;;11.00;99.90;11.00;99005.00;;;;5001984;28;87048;-64
2022/09/05 10:56:25;;;;;;;2.17;1.10;;;10.80;99.90;10.80;99000.00;;;;4998583;28;88638;-62
2022/09/05 10:59:02;;;;;;;0.90;0.75;;;10.80;99.90;10.80;98999.00;;;;4999260;28;87230;-63
2022/09/05 11:01:57;;;;;;;1.98;1.13;;;11.00;99.90;11.00;99001.00;;;;4995883;28;87052;-63
2022/09/05 11:04:32;;;;;;;2.50;1.40;;;11.20;99.90;11.30;99000.00;;;;4991763;28;86994;-64
2022/09/05 11:07:17;;;;;;;1.92;0.90;;;11.50;99.90;11.60;98994.00;;;;4992960;28;88481;-62
2022/09/05 11:10:04;;;;;;;5.70;1.00;;;11.50;99.90;11.60;98991.00;;;;4988457;28;88526;-63
2022/09/05 11:12:59;;;;;;;2.20;0.98;;;11.60;99.90;11.60;98998.00;;;;4992290;28;87339;-63
2022/09/05 11:15:43;;;;;;;2.47;1.00;;;11.70;99.90;11.70;98990.00;;;;4991161;28;87000;-63
2022/09/05 11:18:16;;;;;;;2.28;0.82;;;11.60;99.90;11.60;98999.00;;;;4995166;28;87600;-63
2022/09/05 11:20:56;;;;;;;2.78;0.90;;;11.60;99.90;11.70;98986.00;;;;4988901;28;87323;-64
2022/09/05 11:23:44;;;;;;;3.08;0.95;;;11.80;99.90;11.90;98979.00;;;;4995405;28;87431;-63
2022/09/05 11:26:43;;;;;;;0.98;0.88;;;11.70;99.90;11.60;98994.00;;;;4996518;28;86212;-63
2022/09/05 11:29:23;;;;;;;4.18;0.90;;;11.60;99.90;11.60;98985.00;;;;4967295;28;89291;-63
2022/09/05 11:32:29;;;;;;;1.80;1.20;;;11.60;99.90;11.70;98980.00;;;;4994957;28;87076;-63
2022/09/05 11:35:26;;;;;;;4.47;1.20;;;11.80;99.90;11.80;98972.00;;;;4990114;28;87929;-63
2022/09/05 11:38:08;;;;;;;2.58;1.50;;;11.60;99.90;11.60;98984.00;;;;4984268;28;87550;-62
2022/09/05 11:41:12;;;;;;;6.25;1.38;;;11.50;99.90;11.50;98979.00;;;;4998044;28;87526;-63
2022/09/05 11:43:41;;;;;;;2.35;1.60;;;;;10.80;98989.00;;;;4997432;28;88458;-63
2022/09/05 11:46:44;;;;;;;4.00;1.55;;;10.70;99.90;10.60;98980.00;;;;4999880;28;87274;-63
2022/09/05 11:49:32;;;;;;;1.63;0.88;;;11.80;99.90;10.40;98991.00;;;;4989303;28;86861;-61
2022/09/05 11:52:59;;;;;;;5.15;1.20;;;10.40;99.90;10.30;98983.00;;;;4987046;28;87602;-61
2022/09/05 11:56:03;;;;;;;3.65;1.17;;;10.10;99.90;10.50;98983.00;;;;4964470;28;87202;-63
2022/09/05 11:59:26;;;;;;;1.67;1.20;;;10.60;99.90;10.50;98977.00;;;;4993711;28;88123;-62
2022/09/05 12:01:55;;;;;;;2.38;1.52;;;;;10.60;98959.00;;;;4990096;28;86990;-63
2022/09/05 12:05:05;;;;;;;4.18;1.33;;;10.70;99.90;10.60;98966.00;;;;4985946;28;90608;-63
2022/09/05 12:08:05;;;;;;;2.58;1.60;;;10.70;99.90;10.60;98967.00;;;;4993240;28;87993;-62
2022/09/05 12:10:57;;;;;;;2.75;1.50;;;10.70;99.90;10.60;98964.00;;;;4987427;28;87479;-62
2022/09/05 12:14:11;;;;;;;5.50;2.00;;;10.70;99.90;10.60;98971.00;;;;4994534;28;87298;-62
2022/09/05 12:16:52;;;;;;;3.25;1.70;;;10.60;99.90;10.50;98956.00;;;;4971696;28;88127;-63
2022/09/05 12:19:32;;;;;;;4.90;2.10;;;10.50;99.90;10.40;98949.00;;;;4983394;28;87269;-62
2022/09/05 12:22:38;;;;;;;3.40;1.67;;;10.70;99.90;10.60;98947.00;;;;4994376;28;87136;-63
2022/09/05 12:25:46;;;;;;;4.32;1.98;;;10.90;99.90;10.80;98945.00;;;;4991849;28;86393;-63
2022/09/05 12:28:25;;;;;;;3.65;1.98;;;11.10;99.90;11.10;98940.00;;;;4985724;28;87749;-63
2022/09/05 12:31:09;;;;;;;4.15;1.60;;;11.20;99.90;11.20;98937.00;;;;4991652;28;86960;-63
2022/09/05 12:33:35;;;;;;;3.20;1.73;;;;;11.30;98934.00;;;;4989758;28;88478;-63
2022/09/05 12:36:38;;;;;;;5.05;1.83;;;11.40;99.90;11.30;98925.00;;;;4992062;28;87704;-63
2022/09/05 12:39:27;;;;;;;5.63;2.05;;;11.50;99.90;11.50;98929.00;;;;4990364;28;87804;-62
2022/09/05 12:42:18;;;;;;;4.72;1.60;;;11.60;99.90;11.50;98932.00;;;;4997913;28;86909;-62
2022/09/05 12:45:31;;;;;;;4.13;1.77;;;11.60;99.90;11.70;98932.00;;;;4990136;28;86920;-62
2022/09/05 12:48:23;;;;;;;5.63;1.95;;;11.70;99.90;11.70;98938.00;;;;4988343;28;87329;-63
2022/09/05 12:51:19;;;;;;;4.13;2.05;;;11.50;99.90;11.50;98942.00;;;;4996820;28;87353;-63
2022/09/05 12:54:03;;;;;;;1.40;1.10;;;11.30;99.90;11.20;98923.00;;;;5001537;28;87480;-63
2022/09/05 12:56:32;;;;;;;2.08;1.48;;;11.10;99.90;11.00;98930.00;;;;4998207;28;87086;-63
2022/09/05 12:58:59;;;;;;;2.25;1.20;;;10.90;99.90;10.90;98919.00;;;;4990428;28;87426;-63
2022/09/05 13:01:31;;;;;;;4.82;1.50;;;10.90;99.90;10.80;98932.00;;;;4993396;28;88596;-63
2022/09/05 13:04:21;;;;;;;2.08;1.20;;;10.90;99.90;10.80;98919.00;;;;4990292;28;89331;-63
2022/09/05 13:06:59;;;;;;;4.25;1.30;;;10.80;99.90;10.70;98929.00;;;;4986703;28;87336;-63
2022/09/05 13:09:50;;;;;;;3.75;1.45;;;10.90;99.90;10.80;98921.00;;;;4994960;28;86997;-63
2022/09/05 13:12:18;;;;;;;3.08;1.42;;;;;10.80;98924.00;;;;4990408;28;87656;-63
2022/09/05 13:15:07;;;;;;;2.55;1.80;;;10.90;99.90;10.80;98933.00;;;;4981372;28;87213;-63
2022/09/05 13:17:38;;;;;;;3.05;1.33;;;10.80;99.90;10.70;98930.00;;;;4989180;28;86976;-63
2022/09/05 13:20:35;;;;;;;3.30;1.75;;;10.70;99.90;10.70;98923.00;;;;4989130;28;86197;-62
2022/09/05 13:23:25;;;;;;;4.70;1.73;;;10.70;99.90;10.60;98931.00;;;;4992147;28;88052;-62
2022/09/05 13:26:22;;;;;;;4.05;2.20;;;10.60;99.90;10.50;98922.00;;;;4987505;28;87305;-63
2022/09/05 13:28:51;;;;;;;2.92;2.30;;;;;10.40;98915.00;;;;4992039;28;87852;-62
2022/09/05 13:32:10;;;;;;;4.88;2.05;;;10.60;99.90;10.50;98911.00;;;;4988512;28;87112;-64
2022/09/05 13:34:54;;;;;;;4.47;2.50;;;10.50;99.90;10.40;98908.00;;;;4933819;28;88909;-63
2022/09/05 13:37:51;;;;;;;5.57;2.67;;;10.40;99.90;10.30;98913.00;;;;4939417;28;87250;-63